Station History

Weather Underground - logo

Station Historical Data
Daily Summary for August 5, 2017 Units:  English    Metric   Both
« Previous Day
Next Day »
Daily Weekly Monthly Yearly Custom
  High: Low: Average:
Temperature: 99.0 °F 71.6 °F 84.7 °F
Dew Point: 67.0 °F 58.4 °F 63.5 °F
Humidity: 75 % 31 % 52 %
Wind Speed: 4.6 mph 0.0 mph 1.1 mph
Wind Gust: 4.6 mph - -
Wind:- - WSW
Pressure: 29.85 in 29.73 in -
Precipitation: 0.00 in    
Historical Graphs
 
 
Tabular Data for August 5, 2017
Time Temperature Dew Point Pressure Wind Wind Speed Wind Gust Humidity Rainfall Rate (Hourly)
00:04 75.8 °F 65.3 °F 29.81 in Calm     70 % 0.00 in
00:09 76.1 °F 64.8 °F 29.81 in ESE 1.2 mph 1.2 mph 68 % 0.00 in
00:14 76.3 °F 65.0 °F 29.81 in ESE 1.2 mph   68 % 0.00 in
00:19 76.2 °F 65.3 °F 29.81 in Calm     69 % 0.00 in
00:24 75.9 °F 65.4 °F 29.81 in Calm     70 % 0.00 in
00:29 75.3 °F 65.2 °F 29.81 in Calm     71 % 0.00 in
00:34 74.9 °F 65.3 °F 29.81 in Calm     72 % 0.00 in
00:39 74.6 °F 65.4 °F 29.81 in Calm     73 % 0.00 in
00:44 74.4 °F 65.2 °F 29.81 in Calm     73 % 0.00 in
00:49 74.3 °F 65.1 °F 29.81 in Calm     73 % 0.00 in
00:54 74.4 °F 64.8 °F 29.81 in Calm     72 % 0.00 in
00:59 74.4 °F 64.4 °F 29.81 in SE 1.2 mph 1.2 mph 71 % 0.00 in
01:04 74.2 °F 64.6 °F 29.81 in Calm     72 % 0.00 in
01:09 74.0 °F 64.4 °F 29.81 in ESE 1.2 mph   72 % 0.00 in
01:14 73.9 °F 64.3 °F 29.82 in Calm     72 % 0.00 in
01:19 73.8 °F 64.6 °F 29.82 in Calm     73 % 0.00 in
01:24 73.6 °F 64.4 °F 29.82 in Calm     73 % 0.00 in
01:26 73.5 °F 64.3 °F 29.82 in Calm     73 % 0.00 in
01:31 73.4 °F 64.6 °F 29.81 in Calm     74 % 0.00 in
01:36 73.2 °F 64.4 °F 29.82 in Calm   0.1 mph 74 % 0.00 in
01:41 73.4 °F 64.2 °F 29.82 in ESE 1.0 mph   73 % 0.00 in
01:46 73.5 °F 63.9 °F 29.81 in South 1.2 mph 1.2 mph 72 % 0.00 in
01:51 73.7 °F 64.1 °F 29.81 in Calm     72 % 0.00 in
01:57 73.8 °F 64.2 °F 29.81 in Calm     72 % 0.00 in
02:01 73.8 °F 64.2 °F 29.81 in Calm     72 % 0.00 in
02:07 73.8 °F 64.2 °F 29.81 in Calm     72 % 0.00 in
02:12 73.7 °F 64.1 °F 29.81 in Calm   0.1 mph 72 % 0.00 in
02:17 73.5 °F 63.9 °F 29.81 in SE 1.2 mph   72 % 0.00 in
02:22 73.4 °F 64.2 °F 29.81 in Calm     73 % 0.00 in
02:27 73.3 °F 64.1 °F 29.82 in Calm     73 % 0.00 in
02:32 73.3 °F 63.7 °F 29.81 in Calm     72 % 0.00 in
02:33 73.3 °F 63.7 °F 29.81 in Calm     72 % 0.00 in
02:38 73.3 °F 64.1 °F 29.81 in SE 1.2 mph   73 % 0.00 in
02:43 73.0 °F 63.8 °F 29.81 in Calm     73 % 0.00 in
02:48 72.8 °F 64.0 °F 29.81 in Calm     74 % 0.00 in
02:53 72.5 °F 63.7 °F 29.80 in Calm     74 % 0.00 in
02:58 72.3 °F 63.5 °F 29.80 in Calm     74 % 0.00 in
03:03 72.2 °F 63.4 °F 29.81 in Calm     74 % 0.00 in
03:08 72.0 °F 63.6 °F 29.81 in Calm     75 % 0.00 in
03:13 71.9 °F 63.2 °F 29.81 in Calm     74 % 0.00 in
03:18 71.8 °F 63.1 °F 29.81 in SE 1.2 mph   74 % 0.00 in
03:23 71.8 °F 63.1 °F 29.81 in Calm     74 % 0.00 in
03:28 71.7 °F 63.0 °F 29.81 in Calm     74 % 0.00 in
03:33 71.7 °F 63.0 °F 29.82 in Calm     74 % 0.00 in
03:38 71.8 °F 63.4 °F 29.82 in Calm     75 % 0.00 in
03:43 71.7 °F 63.0 °F 29.82 in Calm     74 % 0.00 in
03:48 71.7 °F 63.0 °F 29.81 in Calm     74 % 0.00 in
03:53 72.0 °F 62.5 °F 29.81 in Calm     72 % 0.00 in
03:58 72.6 °F 62.7 °F 29.81 in Calm     71 % 0.00 in
04:03 72.7 °F 61.9 °F 29.81 in Calm     69 % 0.00 in
04:08 72.8 °F 62.0 °F 29.81 in Calm     69 % 0.00 in
04:13 72.9 °F 61.7 °F 29.81 in Calm     68 % 0.00 in
04:18 73.1 °F 61.9 °F 29.81 in Calm     68 % 0.00 in
04:23 73.1 °F 63.1 °F 29.81 in Calm     71 % 0.00 in
04:28 72.9 °F 63.7 °F 29.81 in Calm     73 % 0.00 in
04:33 72.6 °F 62.7 °F 29.81 in Calm     71 % 0.00 in
04:38 72.4 °F 62.5 °F 29.81 in Calm     71 % 0.00 in
04:43 72.2 °F 63.8 °F 29.81 in Calm     75 % 0.00 in
04:48 71.9 °F 62.8 °F 29.81 in Calm     73 % 0.00 in
04:53 71.8 °F 62.3 °F 29.81 in Calm     72 % 0.00 in
04:58 71.8 °F 62.3 °F 29.81 in Calm     72 % 0.00 in
05:03 71.7 °F 62.2 °F 29.81 in Calm     72 % 0.00 in
05:08 71.6 °F 62.5 °F 29.81 in Calm     73 % 0.00 in
05:13 71.6 °F 62.9 °F 29.81 in Calm     74 % 0.00 in
05:18 71.6 °F 62.9 °F 29.82 in Calm     74 % 0.00 in
05:23 71.6 °F 62.5 °F 29.82 in Calm     73 % 0.00 in
05:28 71.8 °F 61.9 °F 29.82 in Calm     71 % 0.00 in
05:33 72.5 °F 62.6 °F 29.82 in Calm     71 % 0.00 in
05:38 72.7 °F 62.8 °F 29.82 in Calm     71 % 0.00 in
05:43 72.6 °F 63.8 °F 29.82 in Calm     74 % 0.00 in
05:48 72.5 °F 63.7 °F 29.82 in Calm     74 % 0.00 in
05:53 72.3 °F 63.2 °F 29.82 in Calm     73 % 0.00 in
05:58 72.3 °F 63.2 °F 29.83 in Calm     73 % 0.00 in
06:03 72.3 °F 63.5 °F 29.83 in Calm     74 % 0.00 in
06:08 72.2 °F 63.8 °F 29.83 in Calm     75 % 0.00 in
06:10 72.2 °F 63.4 °F 29.83 in Calm     74 % 0.00 in
06:15 72.1 °F 63.4 °F 29.83 in Calm     74 % 0.00 in
06:20 72.1 °F 63.4 °F 29.83 in Calm     74 % 0.00 in
06:25 72.1 °F 63.0 °F 29.83 in Calm     73 % 0.00 in
06:30 72.2 °F 63.1 °F 29.83 in Calm     73 % 0.00 in
06:35 72.2 °F 63.1 °F 29.83 in Calm     73 % 0.00 in
06:40 72.2 °F 62.3 °F 29.84 in Calm     71 % 0.00 in
06:45 72.3 °F 62.4 °F 29.84 in Calm     71 % 0.00 in
06:50 72.5 °F 62.2 °F 29.84 in Calm     70 % 0.00 in
06:55 72.7 °F 63.9 °F 29.84 in Calm     74 % 0.00 in
07:00 72.9 °F 63.7 °F 29.84 in Calm     73 % 0.00 in
07:05 72.9 °F 62.9 °F 29.84 in Calm     71 % 0.00 in
07:11 73.2 °F 63.2 °F 29.84 in Calm     71 % 0.00 in
07:16 73.4 °F 63.0 °F 29.84 in Calm     70 % 0.00 in
07:21 74.1 °F 62.9 °F 29.84 in Calm     68 % 0.00 in
07:26 75.1 °F 63.0 °F 29.84 in Calm     66 % 0.00 in
07:31 75.9 °F 63.3 °F 29.84 in Calm     65 % 0.00 in
07:41 77.1 °F 63.5 °F 29.84 in Calm     63 % 0.00 in
07:46 77.5 °F 63.5 °F 29.84 in Calm     62 % 0.00 in
07:51 78.0 °F 64.4 °F 29.85 in Calm     63 % 0.00 in
07:56 78.7 °F 63.6 °F 29.84 in ESE 1.2 mph 1.2 mph 60 % 0.00 in
08:01 79.0 °F 63.4 °F 29.84 in SE 1.2 mph 1.2 mph 59 % 0.00 in
08:06 79.3 °F 64.2 °F 29.84 in SE 1.2 mph 1.2 mph 60 % 0.00 in
08:11 79.0 °F 63.9 °F 29.85 in SE 2.3 mph 2.3 mph 60 % 0.00 in
08:16 79.0 °F 64.9 °F 29.85 in SE 1.0 mph   62 % 0.00 in
08:21 79.0 °F 64.4 °F 29.84 in Calm   0.3 mph 61 % 0.00 in
08:26 79.2 °F 64.6 °F 29.85 in Calm     61 % 0.00 in
08:31 79.9 °F 64.3 °F 29.85 in ESE 1.2 mph 1.2 mph 59 % 0.00 in
08:36 80.6 °F 64.0 °F 29.85 in Calm     57 % 0.00 in
08:37 80.6 °F 64.0 °F 29.85 in Calm     57 % 0.00 in
08:42 81.5 °F 63.8 °F 29.85 in SSE 1.2 mph   55 % 0.00 in
08:47 82.2 °F 63.4 °F 29.85 in SSE 2.3 mph 2.3 mph 53 % 0.00 in
08:52 82.9 °F 64.0 °F 29.85 in SSE 1.2 mph 1.2 mph 53 % 0.00 in
08:57 83.6 °F 63.6 °F 29.85 in East 1.2 mph 1.2 mph 51 % 0.00 in
09:02 84.2 °F 64.1 °F 29.85 in SE 1.2 mph   51 % 0.00 in
09:07 84.8 °F 64.1 °F 29.85 in West 1.2 mph 1.2 mph 50 % 0.00 in
09:12 85.2 °F 64.5 °F 29.84 in West 1.2 mph 1.2 mph 50 % 0.00 in
09:17 85.5 °F 64.2 °F 29.84 in Calm     49 % 0.00 in
09:22 85.7 °F 63.8 °F 29.84 in SSE 2.3 mph 2.3 mph 48 % 0.00 in
09:27 85.1 °F 64.9 °F 29.84 in SSE 1.2 mph 1.2 mph 51 % 0.00 in
09:32 84.9 °F 65.9 °F 29.84 in Calm     53 % 0.00 in
09:37 85.4 °F 65.2 °F 29.84 in North 1.2 mph 1.2 mph 51 % 0.00 in
09:42 85.8 °F 64.4 °F 29.84 in NNW 3.5 mph 3.5 mph 49 % 0.00 in
09:47 86.1 °F 65.3 °F 29.84 in NNW 1.2 mph 1.2 mph 50 % 0.00 in
09:52 86.5 °F 66.2 °F 29.84 in SE 1.2 mph   51 % 0.00 in
09:57 87.0 °F 65.5 °F 29.84 in WNW 1.2 mph 1.2 mph 49 % 0.00 in
10:02 87.5 °F 66.0 °F 29.84 in SE 1.2 mph   49 % 0.00 in
10:07 87.9 °F 64.5 °F 29.84 in NW 2.3 mph 2.3 mph 46 % 0.00 in
10:12 87.9 °F 64.5 °F 29.84 in SSE 1.2 mph 1.2 mph 46 % 0.00 in
10:17 87.6 °F 64.9 °F 29.84 in North 2.3 mph 2.3 mph 47 % 0.00 in
10:22 87.8 °F 65.7 °F 29.84 in SSE 2.3 mph 2.3 mph 48 % 0.00 in
10:27 88.8 °F 66.0 °F 29.84 in SE 1.2 mph 1.2 mph 47 % 0.00 in
10:32 89.2 °F 63.8 °F 29.84 in NNW 2.0 mph 2.0 mph 43 % 0.00 in
10:37 89.5 °F 64.7 °F 29.84 in SE 3.0 mph 3.0 mph 44 % 0.00 in
10:42 90.0 °F 65.8 °F 29.84 in SSE 2.0 mph 2.0 mph 45 % 0.00 in
10:47 90.5 °F 65.6 °F 29.84 in SSE 2.0 mph 2.0 mph 44 % 0.00 in
10:52 90.8 °F 63.9 °F 29.84 in WNW 2.0 mph 2.0 mph 41 % 0.00 in
10:57 90.5 °F 64.3 °F 29.84 in North 1.2 mph 1.4 mph 42 % 0.00 in
11:02 90.7 °F 65.1 °F 29.84 in ENE 2.3 mph 2.3 mph 43 % 0.00 in
11:07 90.9 °F 62.5 °F 29.84 in NW 2.3 mph 2.3 mph 39 % 0.00 in
11:12 91.3 °F 65.7 °F 29.84 in SSE 3.5 mph 3.5 mph 43 % 0.00 in
11:18 91.8 °F 63.3 °F 29.84 in NW 2.3 mph 2.3 mph 39 % 0.00 in
11:23 92.0 °F 64.2 °F 29.84 in SSW 2.3 mph 2.3 mph 40 % 0.00 in
11:28 92.0 °F 62.0 °F 29.84 in WNW 3.5 mph 3.5 mph 37 % 0.00 in
11:33 91.9 °F 61.9 °F 29.84 in NW 2.3 mph 2.3 mph 37 % 0.00 in
11:38 92.1 °F 62.1 °F 29.84 in WNW 2.3 mph 2.3 mph 37 % 0.00 in
11:43 92.7 °F 63.4 °F 29.84 in SE 2.3 mph 2.3 mph 38 % 0.00 in
11:48 92.8 °F 64.9 °F 29.84 in WNW 2.3 mph 2.3 mph 40 % 0.00 in
11:53 92.2 °F 63.7 °F 29.83 in NW 2.3 mph 2.3 mph 39 % 0.00 in
11:54 92.2 °F 65.1 °F 29.84 in SSW 3.5 mph 3.5 mph 41 % 0.00 in
11:59 93.0 °F 64.4 °F 29.83 in North 1.2 mph 1.2 mph 39 % 0.00 in
12:04 93.0 °F 62.1 °F 29.83 in ENE 2.3 mph 2.3 mph 36 % 0.00 in
12:09 92.6 °F 64.8 °F 29.83 in North 1.2 mph 1.2 mph 40 % 0.00 in
12:14 92.7 °F 64.1 °F 29.83 in Calm   0.2 mph 39 % 0.00 in
12:19 92.9 °F 62.8 °F 29.83 in WSW 2.3 mph 2.3 mph 37 % 0.00 in
12:24 93.1 °F 64.5 °F 29.83 in North 1.2 mph 1.2 mph 39 % 0.00 in
12:29 92.9 °F 64.3 °F 29.83 in West 1.2 mph 1.3 mph 39 % 0.00 in
12:34 92.8 °F 64.2 °F 29.83 in NNW 4.6 mph 4.6 mph 39 % 0.00 in
12:39 92.7 °F 64.1 °F 29.83 in West 3.5 mph 3.5 mph 39 % 0.00 in
12:45 92.3 °F 63.8 °F 29.83 in SW 2.3 mph 2.3 mph 39 % 0.00 in
12:50 92.3 °F 64.5 °F 29.83 in NW 2.3 mph 2.3 mph 40 % 0.00 in
12:55 92.4 °F 64.6 °F 29.83 in NNW 1.2 mph 1.2 mph 40 % 0.00 in
13:00 92.6 °F 64.8 °F 29.82 in ESE 1.2 mph 1.2 mph 40 % 0.00 in
13:05 93.1 °F 65.9 °F 29.82 in NNW 1.2 mph 1.2 mph 41 % 0.00 in
13:10 93.4 °F 64.7 °F 29.82 in NNW 2.3 mph 2.3 mph 39 % 0.00 in
13:15 93.6 °F 64.2 °F 29.82 in NW 2.3 mph 2.3 mph 38 % 0.00 in
13:20 94.0 °F 65.3 °F 29.82 in NNW 3.0 mph 3.0 mph 39 % 0.00 in
13:25 94.5 °F 64.2 °F 29.82 in West 3.5 mph 3.5 mph 37 % 0.00 in
13:30 94.6 °F 62.7 °F 29.81 in NNW 3.5 mph 3.5 mph 35 % 0.00 in
13:35 95.4 °F 65.0 °F 29.81 in NW 2.3 mph 2.3 mph 37 % 0.00 in
13:40 95.1 °F 63.1 °F 29.81 in NW 3.5 mph 3.5 mph 35 % 0.00 in
13:45 94.7 °F 62.0 °F 29.81 in NW 2.3 mph 2.3 mph 34 % 0.00 in
13:50 94.8 °F 62.9 °F 29.81 in NW 3.5 mph 3.5 mph 35 % 0.00 in
13:55 94.8 °F 60.3 °F 29.81 in WNW 3.5 mph 3.5 mph 32 % 0.00 in
14:00 95.0 °F 61.4 °F 29.81 in NW 3.5 mph 3.5 mph 33 % 0.00 in
14:05 95.0 °F 62.2 °F 29.80 in WNW 3.5 mph 3.5 mph 34 % 0.00 in
14:10 95.1 °F 62.3 °F 29.80 in ESE 3.5 mph 3.5 mph 34 % 0.00 in
14:15 95.0 °F 61.4 °F 29.80 in NW 2.3 mph 2.3 mph 33 % 0.00 in
14:20 95.0 °F 63.1 °F 29.80 in WNW 1.2 mph 1.2 mph 35 % 0.00 in
14:24 95.0 °F 60.5 °F 29.79 in WNW 1.2 mph 1.2 mph 32 % 0.00 in
14:29 95.0 °F 61.4 °F 29.79 in NNE 1.2 mph   33 % 0.00 in
14:34 95.3 °F 63.3 °F 29.79 in NNE 1.2 mph 1.2 mph 35 % 0.00 in
14:44 96.0 °F 63.1 °F 29.79 in WNW 2.0 mph 2.0 mph 34 % 0.00 in
14:49 95.8 °F 62.9 °F 29.78 in East 3.5 mph 3.5 mph 34 % 0.00 in
14:50 95.8 °F 63.8 °F 29.78 in ENE 2.3 mph 2.3 mph 35 % 0.00 in
14:55 95.9 °F 63.8 °F 29.78 in NW 2.3 mph 2.3 mph 35 % 0.00 in
15:00 96.0 °F 63.9 °F 29.78 in West 1.2 mph 1.2 mph 35 % 0.00 in
15:05 96.4 °F 63.5 °F 29.78 in North 3.5 mph 3.5 mph 34 % 0.00 in
15:10 96.4 °F 64.3 °F 29.78 in West 1.2 mph 1.2 mph 35 % 0.00 in
15:15 96.5 °F 66.0 °F 29.78 in NNW 1.2 mph 1.2 mph 37 % 0.00 in
15:20 97.1 °F 65.7 °F 29.78 in West 2.3 mph 2.3 mph 36 % 0.00 in
15:25 97.1 °F 64.1 °F 29.77 in ESE 1.2 mph   34 % 0.00 in
15:30 96.4 °F 64.3 °F 29.77 in NNW 3.5 mph 3.5 mph 35 % 0.00 in
15:32 96.1 °F 64.8 °F 29.77 in SE 1.2 mph 1.2 mph 36 % 0.00 in
15:37 95.3 °F 64.9 °F 29.77 in NNW 1.2 mph   37 % 0.00 in
15:42 95.1 °F 67.0 °F 29.77 in NNW 1.2 mph   40 % 0.00 in
15:47 95.3 °F 65.7 °F 29.77 in South 2.3 mph 2.3 mph 38 % 0.00 in
15:52 95.7 °F 63.7 °F 29.77 in NW 2.3 mph 2.3 mph 35 % 0.00 in
15:57 95.8 °F 63.8 °F 29.77 in NW 2.3 mph 2.3 mph 35 % 0.00 in
16:02 95.4 °F 63.4 °F 29.77 in WNW 1.2 mph   35 % 0.00 in
16:07 95.8 °F 62.1 °F 29.76 in NW 1.2 mph 1.2 mph 33 % 0.00 in
16:13 96.2 °F 63.3 °F 29.76 in Calm     34 % 0.00 in
16:18 96.2 °F 63.3 °F 29.76 in NE 1.2 mph   34 % 0.00 in
16:23 96.5 °F 62.7 °F 29.76 in NNW 1.2 mph   33 % 0.00 in
16:28 96.7 °F 62.9 °F 29.76 in SE 1.2 mph 1.2 mph 33 % 0.00 in
16:33 97.3 °F 62.5 °F 29.76 in NW 1.2 mph 1.2 mph 32 % 0.00 in
16:38 97.3 °F 62.5 °F 29.75 in NW 1.2 mph 1.2 mph 32 % 0.00 in
16:43 97.8 °F 62.9 °F 29.75 in North 1.2 mph 1.2 mph 32 % 0.00 in
16:48 98.2 °F 64.2 °F 29.75 in SE 2.3 mph 2.3 mph 33 % 0.00 in
16:53 98.2 °F 63.3 °F 29.75 in SE 2.3 mph 2.3 mph 32 % 0.00 in
16:58 98.6 °F 62.7 °F 29.75 in SSE 2.3 mph 2.3 mph 31 % 0.00 in
17:03 98.9 °F 63.9 °F 29.75 in WNW 1.2 mph 1.2 mph 32 % 0.00 in
17:08 99.0 °F 64.0 °F 29.75 in ESE 1.2 mph   32 % 0.00 in
17:13 98.7 °F 63.7 °F 29.75 in NW 3.5 mph 3.5 mph 32 % 0.00 in
17:18 98.1 °F 62.3 °F 29.74 in NW 2.3 mph 2.3 mph 31 % 0.00 in
17:23 97.9 °F 63.9 °F 29.74 in West 1.2 mph 1.2 mph 33 % 0.00 in
17:28 98.0 °F 63.1 °F 29.74 in WSW 2.3 mph 2.3 mph 32 % 0.00 in
17:33 98.0 °F 62.2 °F 29.74 in NNW 2.0 mph 2.0 mph 31 % 0.00 in
17:38 97.8 °F 62.9 °F 29.74 in NW 3.5 mph 3.5 mph 32 % 0.00 in
17:43 97.9 °F 64.8 °F 29.74 in NW 1.2 mph 1.2 mph 34 % 0.00 in
17:48 97.7 °F 62.9 °F 29.74 in NW 3.5 mph 3.5 mph 32 % 0.00 in
17:53 97.6 °F 61.9 °F 29.74 in NW 3.5 mph 3.5 mph 31 % 0.00 in
17:58 97.7 °F 62.0 °F 29.74 in NW 3.5 mph 3.5 mph 31 % 0.00 in
18:03 97.6 °F 62.8 °F 29.74 in NW 3.5 mph 3.5 mph 32 % 0.00 in
18:08 97.3 °F 62.5 °F 29.74 in NW 3.5 mph 3.5 mph 32 % 0.00 in
18:13 97.1 °F 64.1 °F 29.74 in NNE 3.5 mph 3.5 mph 34 % 0.00 in
18:18 97.0 °F 64.8 °F 29.74 in WNW 4.0 mph 4.0 mph 35 % 0.00 in
18:23 96.8 °F 63.8 °F 29.74 in NW 3.5 mph 3.5 mph 34 % 0.00 in
18:28 96.6 °F 62.8 °F 29.74 in NW 3.5 mph 3.5 mph 33 % 0.00 in
18:33 96.5 °F 64.4 °F 29.73 in NW 3.5 mph 3.5 mph 35 % 0.00 in
18:38 96.1 °F 64.0 °F 29.73 in NNW 3.5 mph 3.5 mph 35 % 0.00 in
18:43 95.7 °F 64.5 °F 29.73 in NW 2.3 mph 2.3 mph 36 % 0.00 in
18:48 95.5 °F 64.3 °F 29.73 in NNE 2.3 mph 2.3 mph 36 % 0.00 in
18:53 95.1 °F 64.7 °F 29.73 in NE 2.3 mph 2.3 mph 37 % 0.00 in
18:58 94.8 °F 63.7 °F 29.73 in North 3.5 mph 3.5 mph 36 % 0.00 in
19:03 94.4 °F 63.3 °F 29.73 in NW 2.3 mph 2.3 mph 36 % 0.00 in
19:08 94.1 °F 63.9 °F 29.73 in NW 2.0 mph 2.0 mph 37 % 0.00 in
19:13 93.7 °F 64.3 °F 29.73 in WSW 2.3 mph 2.3 mph 38 % 0.00 in
19:18 93.4 °F 64.0 °F 29.73 in NNW 1.2 mph 1.2 mph 38 % 0.00 in
19:23 93.1 °F 64.5 °F 29.73 in NNW 1.2 mph   39 % 0.00 in
19:28 92.9 °F 65.7 °F 29.74 in Calm     41 % 0.00 in
19:33 92.6 °F 65.5 °F 29.74 in Calm     41 % 0.00 in
19:38 92.3 °F 65.2 °F 29.74 in NW 1.2 mph   41 % 0.00 in
19:43 92.0 °F 65.6 °F 29.74 in Calm     42 % 0.00 in
19:49 91.7 °F 65.4 °F 29.74 in NW 1.2 mph   42 % 0.00 in
19:54 91.4 °F 65.1 °F 29.74 in Calm     42 % 0.00 in
19:59 91.1 °F 64.8 °F 29.74 in Calm     42 % 0.00 in
20:04 90.9 °F 65.3 °F 29.74 in Calm     43 % 0.00 in
20:09 90.6 °F 65.7 °F 29.74 in WNW 1.2 mph 1.2 mph 44 % 0.00 in
20:14 90.3 °F 64.8 °F 29.74 in Calm     43 % 0.00 in
20:19 90.0 °F 65.2 °F 29.75 in WNW 1.2 mph   44 % 0.00 in
20:24 89.7 °F 65.5 °F 29.74 in Calm     45 % 0.00 in
20:29 89.3 °F 65.8 °F 29.75 in WNW 1.0 mph   46 % 0.00 in
20:34 89.0 °F 65.5 °F 29.75 in WNW 1.2 mph   46 % 0.00 in
20:39 88.8 °F 65.4 °F 29.75 in NNW 1.2 mph 1.2 mph 46 % 0.00 in
20:44 88.7 °F 65.3 °F 29.75 in WNW 1.2 mph 1.2 mph 46 % 0.00 in
20:49 88.4 °F 64.4 °F 29.75 in NW 1.2 mph 1.2 mph 45 % 0.00 in
20:54 88.0 °F 64.0 °F 29.76 in North 2.3 mph 2.3 mph 45 % 0.00 in
20:59 87.7 °F 63.7 °F 29.76 in NW 1.2 mph 1.2 mph 45 % 0.00 in
21:04 87.3 °F 64.6 °F 29.76 in NW 1.2 mph   47 % 0.00 in
21:09 86.8 °F 63.5 °F 29.76 in NW 1.2 mph 1.2 mph 46 % 0.00 in
21:14 86.6 °F 62.7 °F 29.77 in North 2.0 mph 2.0 mph 45 % 0.00 in
21:19 86.4 °F 62.5 °F 29.77 in NW 1.2 mph 1.2 mph 45 % 0.00 in
21:24 86.4 °F 61.9 °F 29.77 in NW 2.3 mph 2.3 mph 44 % 0.00 in
21:29 86.3 °F 61.8 °F 29.77 in NW 1.2 mph 1.2 mph 44 % 0.00 in
21:34 86.1 °F 61.6 °F 29.77 in Calm     44 % 0.00 in
21:39 85.8 °F 62.0 °F 29.77 in Calm     45 % 0.00 in
21:44 85.8 °F 62.0 °F 29.77 in Calm     45 % 0.00 in
21:49 85.6 °F 61.8 °F 29.77 in Calm     45 % 0.00 in
21:54 85.6 °F 61.2 °F 29.77 in Calm     44 % 0.00 in
21:59 85.5 °F 60.4 °F 29.77 in WNW 1.2 mph   43 % 0.00 in
22:04 85.5 °F 60.4 °F 29.77 in Calm     43 % 0.00 in
22:09 85.0 °F 61.9 °F 29.77 in Calm     46 % 0.00 in
22:14 84.0 °F 62.2 °F 29.77 in Calm     48 % 0.00 in
22:19 83.1 °F 62.0 °F 29.78 in Calm     49 % 0.00 in
22:24 82.2 °F 62.3 °F 29.78 in Calm     51 % 0.00 in
22:29 81.5 °F 61.6 °F 29.78 in Calm     51 % 0.00 in
22:34 81.3 °F 60.9 °F 29.77 in Calm     50 % 0.00 in
22:39 81.2 °F 61.9 °F 29.78 in Calm     52 % 0.00 in
22:44 80.7 °F 62.5 °F 29.78 in Calm     54 % 0.00 in
22:49 80.3 °F 61.6 °F 29.78 in Calm     53 % 0.00 in
22:55 79.8 °F 62.2 °F 29.77 in Calm     55 % 0.00 in
23:00 79.3 °F 61.2 °F 29.78 in Calm     54 % 0.00 in
23:05 78.9 °F 60.3 °F 29.78 in NW 1.2 mph 1.2 mph 53 % 0.00 in
23:10 79.1 °F 60.0 °F 29.78 in Calm     52 % 0.00 in
23:15 79.3 °F 59.0 °F 29.78 in Calm     50 % 0.00 in
23:20 79.6 °F 58.8 °F 29.78 in NW 1.2 mph 1.2 mph 49 % 0.00 in
23:25 80.0 °F 59.1 °F 29.78 in Calm     49 % 0.00 in
23:30 80.1 °F 58.6 °F 29.78 in NW 1.2 mph 1.2 mph 48 % 0.00 in
23:35 80.1 °F 58.6 °F 29.78 in Calm     48 % 0.00 in
23:40 79.8 °F 58.4 °F 29.78 in Calm     48 % 0.00 in
23:45 79.4 °F 58.6 °F 29.79 in Calm     49 % 0.00 in
23:50 79.2 °F 58.4 °F 29.79 in Calm     49 % 0.00 in
23:55 79.0 °F 58.8 °F 29.79 in Calm     50 % 0.00 in
Park Place, Exeter, Tulare County, California, USA
Compliments of Weather Underground - 2.75 mb